Arzamas, Russia
Current Conditions -  °F | °C
As of 9:00 AM on Saturday 25 Oct 2014 (Local Time) from UWGG Reporting Station
Clear Clear  
Wind Chill: -15°   Ceiling: Unl
Heat Index: -11°   Visibility: 6mi
Dew Point: -13°   Wind: 4mph
Humidity: 85%   Direction: 320°NW
Pressure: 30.59"   Gusts: NA
Location:  55.38°N, 43.82°E
Report Text: UWGG 250600Z 32002MPS 9000 SKC M11/M13 Q1036 NOSIG 36410145 RMKQFE770
Loading
Personal Weather Stations






























Interactive Weather Map
Tropical Storm Tracking
New forecast layout! Learn more

10-Day Weather Forecast

Advertisements
Track Severe Weather on mobile